Time;durP1;ratioP1;P1;durP2;ratioP2;P2;SDS_P1;SDS_P2;PMS_P1;PMS_P2;Temp;Humidity;BMP_temperature;BMP_pressure;BME280_temperature;BME280_humidity;BME280_pressure;Samples;Min_cycle;Max_cycle;Signal;HPM_P1;HPM_P2
2024/02/18 00:00:57;;;;;;;0.32;0.32;;;;;;;5.38;100.00;101043.44;5032217;28;20046;-57
2024/02/18 00:03:24;;;;;;;0.30;0.30;;;;;;;5.64;100.00;101045.13;5031513;28;20045;-59
2024/02/18 00:05:52;;;;;;;0.40;0.40;;;;;;;5.79;100.00;101040.84;5026863;28;20041;-59
2024/02/18 00:08:19;;;;;;;0.30;0.30;;;;;;;6.00;100.00;101040.34;5028963;28;20047;-59
2024/02/18 00:10:46;;;;;;;0.40;0.40;;;;;;;6.16;100.00;101028.81;5028142;28;20126;-59
2024/02/18 00:13:13;;;;;;;0.40;0.40;;;;;;;6.14;100.00;101025.53;5037843;28;20045;-57
2024/02/18 00:15:40;;;;;;;0.40;0.40;;;;;;;6.22;100.00;101025.50;5031580;28;20091;-59
2024/02/18 00:18:07;;;;;;;0.40;0.40;;;;;;;6.20;100.00;101018.69;5032287;28;20214;-59
2024/02/18 00:20:35;;;;;;;0.40;0.40;;;;;;;6.17;100.00;101025.19;5031979;28;20045;-59
2024/02/18 00:23:04;;;;;;;0.47;0.47;;;;;;;6.14;100.00;101020.19;5030237;28;20384;-59
2024/02/18 00:25:31;;;;;;;0.40;0.40;;;;;;;6.17;100.00;101019.03;5031436;28;20092;-59
2024/02/18 00:27:58;;;;;;;0.47;0.47;;;;;;;6.16;100.00;101017.34;5038300;28;20049;-59
2024/02/18 00:30:26;;;;;;;0.38;0.38;;;;;;;6.11;100.00;101022.34;5032169;28;20038;-59
2024/02/18 00:32:53;;;;;;;0.40;0.40;;;;;;;6.05;100.00;101014.03;5033727;28;20045;-59
2024/02/18 00:35:20;;;;;;;0.30;0.30;;;;;;;6.07;100.00;101013.88;5035915;28;20052;-59
2024/02/18 00:37:48;;;;;;;0.40;0.40;;;;;;;6.09;100.00;101017.22;5033287;28;20073;-59
2024/02/18 00:40:16;;;;;;;0.30;0.30;;;;;;;6.07;100.00;101018.38;5034674;28;20438;-59
2024/02/18 00:42:43;;;;;;;0.38;0.38;;;;;;;6.06;100.00;101014.88;5028064;28;20053;-59
2024/02/18 00:45:12;;;;;;;0.30;0.30;;;;;;;6.12;100.00;101010.72;5030430;28;20041;-59
2024/02/18 00:47:39;;;;;;;0.40;0.40;;;;;;;6.07;100.00;101005.91;5036289;28;20065;-59
2024/02/18 00:50:08;;;;;;;0.40;0.40;;;;;;;6.03;100.00;101002.72;5032626;28;20102;-59
2024/02/18 00:52:35;;;;;;;0.40;0.40;;;;;;;6.00;100.00;101002.25;5023982;28;20145;-59
2024/02/18 00:55:02;;;;;;;0.30;0.30;;;;;;;6.08;100.00;101002.22;5025968;28;20038;-59
2024/02/18 00:57:30;;;;;;;0.40;0.40;;;;;;;5.99;100.00;100995.25;5026759;28;20073;-59
2024/02/18 00:59:57;;;;;;;0.35;0.35;;;;;;;6.00;100.00;101002.25;5037266;28;20041;-59
2024/02/18 01:02:26;;;;;;;0.30;0.30;;;;;;;6.11;100.00;101007.19;5027385;28;20041;-59
2024/02/18 01:04:53;;;;;;;0.32;0.32;;;;;;;6.02;100.00;101005.56;5053652;28;20076;-59
2024/02/18 01:07:20;;;;;;;0.30;0.30;;;;;;;5.93;100.00;101001.22;5038193;28;20053;-59
2024/02/18 01:09:49;;;;;;;0.40;0.40;;;;;;;5.96;100.00;101001.72;5036344;28;20041;-59
2024/02/18 01:12:16;;;;;;;0.30;0.30;;;;;;;5.93;100.00;100990.56;5030039;28;20057;-59
2024/02/18 01:14:44;;;;;;;0.45;0.45;;;;;;;5.90;100.00;100993.59;5034827;28;20080;-59
2024/02/18 01:17:12;;;;;;;0.30;0.30;;;;;;;5.90;100.00;100997.06;5034650;28;20052;-59
2024/02/18 01:19:39;;;;;;;0.40;0.40;;;;;;;5.89;100.00;101000.75;5034319;28;20502;-59
2024/02/18 01:22:06;;;;;;;0.40;0.40;;;;;;;5.88;100.00;100996.41;5037794;28;20129;-59
2024/02/18 01:24:33;;;;;;;0.30;0.30;;;;;;;5.92;100.00;100996.91;5035808;28;20046;-59
2024/02/18 01:27:00;;;;;;;0.38;0.38;;;;;;;5.93;100.00;100999.38;5036291;28;20052;-59
2024/02/18 01:29:27;;;;;;;0.50;0.50;;;;;;;5.91;100.00;100997.91;5044208;28;20509;-59
2024/02/18 01:31:55;;;;;;;0.40;0.40;;;;;;;5.90;100.00;100998.91;5034029;28;20091;-59
2024/02/18 01:34:25;;;;;;;0.40;0.40;;;;;;;6.04;100.00;101003.56;5036494;28;20037;-59
2024/02/18 01:36:52;;;;;;;0.40;0.40;;;;;;;5.95;100.00;100999.25;5031684;28;20513;-59
2024/02/18 01:39:19;;;;;;;0.40;0.40;;;;;;;5.96;100.00;100999.06;5037312;28;20139;-59
2024/02/18 01:41:46;;;;;;;0.40;0.40;;;;;;;5.94;100.00;100981.63;5030860;28;20045;-59
2024/02/18 01:44:13;;;;;;;0.43;0.43;;;;;;;5.91;100.00;100976.59;5037760;28;20041;-59
2024/02/18 01:46:40;;;;;;;0.30;0.30;;;;;;;5.88;100.00;100987.59;5031353;28;20504;-59
2024/02/18 01:49:08;;;;;;;0.40;0.40;;;;;;;5.86;100.00;100978.94;5040906;28;20060;-59
2024/02/18 01:51:36;;;;;;;0.40;0.40;;;;;;;5.87;100.00;100972.63;5040975;28;20160;-59
2024/02/18 01:54:04;;;;;;;0.30;0.30;;;;;;;5.82;100.00;100968.66;5034710;28;20041;-59
2024/02/18 01:56:31;;;;;;;0.40;0.40;;;;;;;5.76;100.00;100961.31;5031848;28;20053;-59
2024/02/18 01:58:58;;;;;;;0.40;0.40;;;;;;;5.76;100.00;100960.50;5036321;28;20460;-59
2024/02/18 02:01:26;;;;;;;0.38;0.38;;;;;;;5.74;100.00;100955.34;5036130;28;20447;-59
2024/02/18 02:03:54;;;;;;;0.40;0.40;;;;;;;5.69;100.00;100949.72;5027934;28;20045;-59
2024/02/18 02:06:22;;;;;;;0.40;0.40;;;;;;;5.77;100.00;100959.50;5029427;28;20053;-59
2024/02/18 02:08:49;;;;;;;0.50;0.50;;;;;;;5.68;100.00;100950.69;5034717;28;20513;-59
2024/02/18 02:11:16;;;;;;;0.30;0.30;;;;;;;5.71;100.00;100950.34;5026605;28;20083;-59
2024/02/18 02:13:43;;;;;;;0.50;0.50;;;;;;;5.72;100.00;100946.72;5036386;28;20053;-58
2024/02/18 02:16:10;;;;;;;0.40;0.40;;;;;;;5.63;100.00;100947.72;5035267;28;20136;-59
2024/02/18 02:18:37;;;;;;;0.35;0.35;;;;;;;5.65;100.00;100944.91;5032951;28;20057;-58
2024/02/18 02:21:05;;;;;;;0.40;0.40;;;;;;;5.58;100.00;100942.06;5033812;28;20555;-59
2024/02/18 02:23:34;;;;;;;0.50;0.50;;;;;;;5.65;100.00;100945.72;5032570;28;20948;-59
2024/02/18 02:26:00;;;;;;;0.50;0.50;;;;;;;5.67;100.00;100945.56;5037836;28;20485;-59
2024/02/18 02:28:29;;;;;;;0.30;0.30;;;;;;;5.58;100.00;100945.53;5039051;28;20506;-59
2024/02/18 02:30:59;;;;;;;0.43;0.43;;;;;;;5.55;100.00;100939.75;5033852;28;20049;-57
2024/02/18 02:33:26;;;;;;;0.40;0.40;;;;;;;5.63;100.00;100942.38;5038461;28;20041;-57
2024/02/18 02:35:53;;;;;;;0.30;0.30;;;;;;;5.56;100.00;100952.03;5036260;28;20044;-57
2024/02/18 02:38:20;;;;;;;0.40;0.40;;;;;;;5.62;100.00;100944.22;5027291;28;20065;-57
2024/02/18 02:40:47;;;;;;;0.40;0.40;;;;;;;5.50;100.00;100937.59;5031633;28;20099;-57
2024/02/18 02:43:16;;;;;;;0.40;0.40;;;;;;;5.57;100.00;100943.91;5031667;28;20061;-57
2024/02/18 02:45:43;;;;;;;0.50;0.50;;;;;;;5.54;100.00;100946.03;5029817;28;20045;-59
2024/02/18 02:48:11;;;;;;;0.30;0.30;;;;;;;5.61;100.00;100939.06;5035213;28;20187;-57
2024/02/18 02:50:38;;;;;;;0.43;0.43;;;;;;;5.43;100.00;100943.75;5028163;28;20079;-57
2024/02/18 02:53:07;;;;;;;0.40;0.40;;;;;;;5.30;100.00;100942.41;5028889;28;20855;-60
2024/02/18 02:55:34;;;;;;;0.50;0.50;;;;;;;5.36;100.00;100941.72;5031259;28;20072;-59
2024/02/18 02:58:01;;;;;;;0.40;0.40;;;;;;;5.25;100.00;100933.28;5036984;28;20502;-57
2024/02/18 03:00:30;;;;;;;0.47;0.47;;;;;;;5.16;100.00;100932.44;5037741;28;20139;-59
2024/02/18 03:02:57;;;;;;;0.40;0.40;;;;;;;5.07;100.00;100930.78;5031124;28;20057;-57
2024/02/18 03:05:28;;;;;;;0.50;0.50;;;;;;;5.07;100.00;100920.97;5038869;28;20053;-57
2024/02/18 03:07:56;;;;;;;0.40;0.40;;;;;;;5.03;100.00;100924.13;5039897;28;20048;-57
2024/02/18 03:10:23;;;;;;;0.40;0.40;;;;;;;4.96;100.00;100922.09;5035394;28;20120;-57
2024/02/18 03:12:50;;;;;;;0.40;0.40;;;;;;;4.92;100.00;100918.13;5032430;28;20041;-57
2024/02/18 03:15:17;;;;;;;0.50;0.50;;;;;;;4.99;100.00;100918.28;5036732;28;20492;-57
2024/02/18 03:17:44;;;;;;;0.45;0.45;;;;;;;4.93;100.00;100911.00;5035888;28;20514;-57
2024/02/18 03:20:12;;;;;;;0.40;0.40;;;;;;;4.94;100.00;100908.19;5033112;28;20129;-57
2024/02/18 03:22:43;;;;;;;0.50;0.50;;;;;;;4.98;100.00;100904.19;5035809;28;20060;-57
2024/02/18 03:25:09;;;;;;;;;;;;;;;4.97;100.00;100910.50;5036499;28;20096;-57
2024/02/18 03:27:37;;;;;;;0.50;0.50;;;;;;;4.98;100.00;100906.84;5024964;28;19921;-59
2024/02/18 03:30:04;;;;;;;0.50;0.50;;;;;;;4.96;100.00;100918.63;5024820;28;20120;-60
2024/02/18 03:32:35;;;;;;;0.30;0.30;;;;;;;4.90;100.00;100913.97;5034224;28;20610;-60
2024/02/18 03:35:03;;;;;;;0.45;0.45;;;;;;;4.92;100.00;100917.31;5029784;28;20049;-57
2024/02/18 03:37:30;;;;;;;0.38;0.38;;;;;;;4.86;100.00;100915.28;5027097;28;20053;-58
2024/02/18 03:39:58;;;;;;;0.50;0.50;;;;;;;4.86;100.00;100918.78;5032375;28;20132;-58
2024/02/18 03:42:25;;;;;;;0.45;0.45;;;;;;;4.90;100.00;100925.44;5036487;28;20515;-58
2024/02/18 03:44:52;;;;;;;0.40;0.40;;;;;;;4.77;100.00;100919.78;5033837;28;20809;-58
2024/02/18 03:47:23;;;;;;;0.50;0.50;;;;;;;4.80;100.00;100918.63;5031432;28;20077;-58
2024/02/18 03:49:49;;;;;;;;;;;;;;;4.72;100.00;100908.81;5013485;28;20069;-58
2024/02/18 03:52:17;;;;;;;0.50;0.50;;;;;;;4.69;100.00;100909.97;5033081;28;19959;-58
2024/02/18 03:54:44;;;;;;;0.40;0.40;;;;;;;4.76;100.00;100910.13;5036511;28;20072;-58
2024/02/18 03:57:12;;;;;;;0.40;0.40;;;;;;;4.73;100.00;100899.84;5039346;28;20069;-58
2024/02/18 03:59:39;;;;;;;0.52;0.52;;;;;;;4.70;100.00;100898.34;5036132;28;20508;-58
2024/02/18 04:02:06;;;;;;;0.50;0.50;;;;;;;4.66;100.00;100901.47;5036738;28;20128;-58
2024/02/18 04:04:33;;;;;;;0.40;0.40;;;;;;;4.64;100.00;100904.31;5029976;28;20051;-58
2024/02/18 04:07:00;;;;;;;0.50;0.50;;;;;;;4.63;100.00;100893.84;5032848;28;20083;-58
2024/02/18 04:09:27;;;;;;;0.40;0.40;;;;;;;4.60;100.00;100894.19;5032643;28;20131;-58
2024/02/18 04:11:55;;;;;;;0.60;0.60;;;;;;;4.65;100.00;100895.34;5030581;28;20475;-59
2024/02/18 04:14:23;;;;;;;0.40;0.40;;;;;;;4.72;100.00;100884.91;5035907;28;20098;-58
2024/02/18 04:16:50;;;;;;;0.50;0.50;;;;;;;4.61;100.00;100893.16;5031693;28;20434;-58
2024/02/18 04:19:18;;;;;;;0.50;0.50;;;;;;;4.63;100.00;100885.88;5032371;28;20128;-58
2024/02/18 04:21:45;;;;;;;0.50;0.50;;;;;;;4.68;100.00;100886.22;5033715;28;20044;-58
2024/02/18 04:24:12;;;;;;;0.40;0.40;;;;;;;4.67;100.00;100889.88;5038228;28;20071;-58
2024/02/18 04:26:39;;;;;;;0.52;0.52;;;;;;;4.73;100.00;100889.22;5040298;28;20041;-58
2024/02/18 04:29:06;;;;;;;0.40;0.40;;;;;;;4.74;100.00;100888.19;5036068;28;20077;-58
2024/02/18 04:31:34;;;;;;;0.50;0.50;;;;;;;4.59;100.00;100884.53;5034147;28;20052;-58
2024/02/18 04:34:01;;;;;;;0.50;0.50;;;;;;;4.53;100.00;100881.53;5031978;28;20517;-58
2024/02/18 04:36:28;;;;;;;0.50;0.50;;;;;;;4.46;100.00;100867.25;5033306;28;20038;-58
2024/02/18 04:38:55;;;;;;;0.50;0.50;;;;;;;4.49;100.00;100874.06;5028299;28;20088;-58
2024/02/18 04:41:23;;;;;;;0.50;0.50;;;;;;;4.47;100.00;100871.56;5032917;28;20044;-58
2024/02/18 04:43:50;;;;;;;0.50;0.50;;;;;;;4.40;100.00;100870.56;5036073;28;20747;-58
2024/02/18 04:46:17;;;;;;;0.50;0.50;;;;;;;4.39;100.00;100879.50;5031997;28;20045;-58
2024/02/18 04:48:45;;;;;;;0.40;0.40;;;;;;;4.38;100.00;100877.84;5032902;28;20140;-58
2024/02/18 04:51:12;;;;;;;0.40;0.40;;;;;;;4.36;100.00;100869.22;5027867;28;20062;-58
2024/02/18 04:53:39;;;;;;;0.50;0.50;;;;;;;4.42;100.00;100863.28;5034589;28;20052;-58
2024/02/18 04:56:07;;;;;;;0.63;0.63;;;;;;;4.40;100.00;100865.25;5033426;28;20127;-58
2024/02/18 04:58:35;;;;;;;0.40;0.40;;;;;;;4.36;100.00;100863.91;5035968;28;20136;-58
2024/02/18 05:01:03;;;;;;;0.50;0.50;;;;;;;4.45;100.00;100849.66;5029638;28;20052;-58
2024/02/18 05:03:31;;;;;;;0.50;0.50;;;;;;;4.38;100.00;100846.00;5032078;28;20676;-58
2024/02/18 05:06:01;;;;;;;0.50;0.50;;;;;;;4.36;100.00;100844.50;5025295;28;20144;-59
2024/02/18 05:08:28;;;;;;;;;;;;;;;4.37;100.00;100844.34;5037110;28;20049;-58
2024/02/18 05:10:55;;;;;;;0.50;0.50;;;;;;;4.26;100.00;100841.97;5024892;28;19936;-58
2024/02/18 05:13:24;;;;;;;0.57;0.57;;;;;;;4.22;100.00;100830.00;5028157;28;20400;-58
2024/02/18 05:15:51;;;;;;;0.40;0.40;;;;;;;4.19;100.00;100840.94;5029752;28;20512;-58
2024/02/18 05:18:19;;;;;;;0.50;0.50;;;;;;;4.17;100.00;100838.47;5036137;28;20047;-58
2024/02/18 05:20:46;;;;;;;0.60;0.60;;;;;;;4.15;100.00;100837.81;5027898;28;20045;-58
2024/02/18 05:23:14;;;;;;;0.50;0.50;;;;;;;4.13;100.00;100841.63;5030036;28;20136;-58
2024/02/18 05:25:41;;;;;;;0.60;0.60;;;;;;;4.16;100.00;100830.66;5029380;28;20111;-58
2024/02/18 05:28:08;;;;;;;0.47;0.47;;;;;;;4.08;100.00;100832.31;5031080;28;20125;-58
2024/02/18 05:30:36;;;;;;;0.50;0.50;;;;;;;4.18;100.00;100829.50;5027674;28;20136;-58
2024/02/18 05:33:03;;;;;;;0.50;0.50;;;;;;;4.09;100.00;100830.47;5036251;28;20119;-58
2024/02/18 05:35:31;;;;;;;0.50;0.50;;;;;;;3.99;100.00;100822.63;5023043;28;20136;-58
2024/02/18 05:38:00;;;;;;;0.50;0.50;;;;;;;3.98;100.00;100823.66;5032246;28;20144;-58
2024/02/18 05:40:29;;;;;;;0.50;0.50;;;;;;;4.00;100.00;100815.53;5031744;28;20068;-58
2024/02/18 05:42:56;;;;;;;0.57;0.57;;;;;;;4.03;100.00;100815.22;5036855;28;20041;-58
2024/02/18 05:45:30;;;;;;;0.40;0.40;;;;;;;3.98;100.00;100815.69;5027094;28;20067;-58
2024/02/18 05:47:57;;;;;;;0.60;0.60;;;;;;;4.03;100.00;100805.41;5037602;28;20143;-58
2024/02/18 05:50:24;;;;;;;0.50;0.50;;;;;;;3.90;100.00;100805.06;5031114;28;20177;-58
2024/02/18 05:52:52;;;;;;;0.50;0.50;;;;;;;3.90;100.00;100810.34;5032206;28;20122;-58
2024/02/18 05:55:19;;;;;;;0.50;0.50;;;;;;;3.89;100.00;100804.22;5035485;28;20041;-58
2024/02/18 05:57:47;;;;;;;0.40;0.40;;;;;;;3.80;100.00;100802.53;5037300;28;20077;-58
2024/02/18 06:00:17;;;;;;;0.50;0.50;;;;;;;3.92;100.00;100796.91;5037759;28;20569;-58
2024/02/18 06:02:46;;;;;;;0.47;0.47;;;;;;;3.76;100.00;100797.69;5041275;28;20069;-58
2024/02/18 06:05:17;;;;;;;0.50;0.50;;;;;;;3.78;100.00;100785.13;5038601;28;20125;-58
2024/02/18 06:07:48;;;;;;;0.45;0.45;;;;;;;3.78;100.00;100787.75;5039288;28;20217;-58
2024/02/18 06:10:15;;;;;;;0.50;0.50;;;;;;;3.68;100.00;100772.81;5039484;28;20052;-59
2024/02/18 06:12:42;;;;;;;0.60;0.60;;;;;;;3.74;100.00;100766.03;5036019;28;20631;-58
2024/02/18 06:15:12;;;;;;;0.50;0.50;;;;;;;3.79;100.00;100770.84;5036547;28;20037;-58
2024/02/18 06:17:39;;;;;;;0.50;0.50;;;;;;;3.73;100.00;100771.50;5037934;28;20488;-58
2024/02/18 06:20:10;;;;;;;0.50;0.50;;;;;;;3.73;100.00;100760.91;5036537;28;20561;-58
2024/02/18 06:22:38;;;;;;;0.60;0.60;;;;;;;3.76;100.00;100760.56;5038994;28;20076;-58
2024/02/18 06:25:06;;;;;;;0.50;0.50;;;;;;;3.80;100.00;100761.91;5037011;28;20597;-58
2024/02/18 06:27:35;;;;;;;0.52;0.52;;;;;;;3.71;100.00;100776.97;5036462;28;20079;-58
2024/02/18 06:30:04;;;;;;;0.43;0.43;;;;;;;3.76;100.00;100777.31;5015867;28;20144;-59
2024/02/18 06:32:37;;;;;;;0.50;0.50;;;;;;;3.75;100.00;100774.84;5038772;28;20438;-58
2024/02/18 06:35:08;;;;;;;0.52;0.52;;;;;;;3.82;100.00;100771.38;5027876;28;20511;-58
2024/02/18 06:37:35;;;;;;;0.50;0.50;;;;;;;3.79;100.00;100776.16;5038174;28;20077;-58
2024/02/18 06:40:02;;;;;;;0.50;0.50;;;;;;;3.86;100.00;100766.56;5039851;28;20127;-58
2024/02/18 06:42:30;;;;;;;0.60;0.60;;;;;;;3.73;100.00;100771.50;5039761;28;20479;-58
2024/02/18 06:44:57;;;;;;;0.57;0.57;;;;;;;3.75;100.00;100758.91;5031793;28;20041;-58
2024/02/18 06:47:24;;;;;;;0.50;0.50;;;;;;;3.84;100.00;100765.88;5038896;28;20114;-58
2024/02/18 06:49:52;;;;;;;0.52;0.52;;;;;;;3.79;100.00;100765.53;5033884;28;20432;-58
2024/02/18 06:52:23;;;;;;;0.50;0.50;;;;;;;3.84;100.00;100764.09;5036738;28;20469;-58
2024/02/18 06:54:50;;;;;;;0.47;0.47;;;;;;;3.81;100.00;100758.25;5032750;28;20033;-58
2024/02/18 06:57:17;;;;;;;0.50;0.50;;;;;;;3.82;100.00;100759.91;5037677;28;20056;-58
2024/02/18 06:59:45;;;;;;;0.45;0.45;;;;;;;3.80;100.00;100751.31;5036407;28;20049;-58
2024/02/18 07:02:12;;;;;;;0.60;0.60;;;;;;;4.00;100.00;100747.38;5035016;28;20054;-58
2024/02/18 07:04:39;;;;;;;0.50;0.50;;;;;;;3.93;100.00;100751.66;5031595;28;20045;-58
2024/02/18 07:07:09;;;;;;;0.52;0.52;;;;;;;3.86;100.00;100750.66;5030896;28;20040;-58
2024/02/18 07:09:36;;;;;;;0.50;0.50;;;;;;;3.90;100.00;100752.00;5033298;28;20115;-58
2024/02/18 07:12:04;;;;;;;0.50;0.50;;;;;;;4.08;100.00;100746.56;5030883;28;20704;-58
2024/02/18 07:14:33;;;;;;;0.50;0.50;;;;;;;3.93;100.00;100750.84;5036110;28;20045;-58
2024/02/18 07:17:00;;;;;;;0.40;0.40;;;;;;;4.03;100.00;100751.53;5027064;28;20067;-58
2024/02/18 07:19:27;;;;;;;0.50;0.50;;;;;;;4.01;100.00;100743.72;5038210;28;20562;-58
2024/02/18 07:21:54;;;;;;;0.60;0.60;;;;;;;4.14;100.00;100742.41;5037034;28;20446;-58
2024/02/18 07:24:23;;;;;;;0.50;0.50;;;;;;;4.24;100.00;100737.78;5034331;28;20040;-58
2024/02/18 07:26:50;;;;;;;0.50;0.50;;;;;;;4.42;100.00;100735.84;5029068;28;20498;-58
2024/02/18 07:29:16;;;;;;;0.52;0.52;;;;;;;4.56;100.00;100730.84;5033329;28;20264;-58
2024/02/18 07:31:43;;;;;;;0.50;0.50;;;;;;;4.37;100.00;100724.88;5036122;28;20487;-58
2024/02/18 07:34:13;;;;;;;0.50;0.50;;;;;;;4.53;100.00;100724.88;5030181;28;20041;-58
2024/02/18 07:36:43;;;;;;;0.60;0.60;;;;;;;4.64;100.00;100709.59;5031692;28;20147;-58
2024/02/18 07:39:11;;;;;;;0.50;0.50;;;;;;;4.69;100.00;100713.41;5037340;28;20069;-59
2024/02/18 07:41:40;;;;;;;0.50;0.50;;;;;;;4.80;100.00;100708.75;5032899;28;20049;-58
2024/02/18 07:44:07;;;;;;;0.40;0.40;;;;;;;4.71;100.00;100703.44;5031700;28;20128;-58
2024/02/18 07:46:34;;;;;;;0.50;0.50;;;;;;;4.70;100.00;100707.09;5033882;28;20047;-58
2024/02/18 07:49:02;;;;;;;0.40;0.40;;;;;;;4.67;100.00;100701.31;5032685;28;20056;-58
2024/02/18 07:51:29;;;;;;;0.47;0.47;;;;;;;4.61;100.00;100712.59;5029287;28;20538;-58
2024/02/18 07:53:56;;;;;;;0.30;0.30;;;;;;;4.68;100.00;100703.78;5035059;28;20061;-58
2024/02/18 07:56:23;;;;;;;0.40;0.40;;;;;;;4.60;100.00;100711.75;5030096;28;20562;-58
2024/02/18 07:58:52;;;;;;;0.40;0.40;;;;;;;4.89;100.00;100705.91;5052181;28;20045;-58
2024/02/18 08:01:19;;;;;;;0.60;0.60;;;;;;;4.82;100.00;100707.59;5033496;28;20045;-58
2024/02/18 08:03:46;;;;;;;0.40;0.40;;;;;;;5.05;100.00;100713.00;5037965;28;20483;-58
2024/02/18 08:06:13;;;;;;;0.40;0.40;;;;;;;4.78;100.00;100716.88;5029811;28;20037;-58
2024/02/18 08:08:40;;;;;;;0.50;0.50;;;;;;;4.73;100.00;100717.38;5029825;28;20496;-58
2024/02/18 08:11:08;;;;;;;0.50;0.50;;;;;;;4.70;100.00;100711.59;5032076;28;20048;-59
2024/02/18 08:13:35;;;;;;;0.40;0.40;;;;;;;4.76;100.00;100711.72;5018004;28;20122;-58
2024/02/18 08:16:04;;;;;;;0.50;0.50;;;;;;;4.73;100.00;100714.72;5027775;28;20045;-58
2024/02/18 08:18:31;;;;;;;0.50;0.50;;;;;;;4.72;100.00;100714.91;5032619;28;20044;-58
2024/02/18 08:20:58;;;;;;;0.50;0.50;;;;;;;4.92;100.00;100716.19;5029301;28;20037;-58
2024/02/18 08:23:25;;;;;;;0.40;0.40;;;;;;;5.08;100.00;100710.00;5036122;28;20060;-58
2024/02/18 08:25:53;;;;;;;0.40;0.40;;;;;;;5.24;100.00;100702.97;5030016;28;20141;-58
2024/02/18 08:28:20;;;;;;;0.40;0.40;;;;;;;5.10;100.00;100697.38;5035485;28;20099;-58
2024/02/18 08:30:47;;;;;;;0.40;0.40;;;;;;;5.11;100.00;100690.22;5034372;28;20170;-59
2024/02/18 08:33:16;;;;;;;0.50;0.50;;;;;;;5.46;100.00;100680.13;5030106;28;20048;-60
2024/02/18 08:35:43;;;;;;;0.40;0.40;;;;;;;5.24;100.00;100674.59;5029985;28;20103;-58
2024/02/18 08:38:14;;;;;;;0.47;0.47;;;;;;;5.56;100.00;100667.44;5032925;28;20041;-58
2024/02/18 08:40:41;;;;;;;0.43;0.43;;;;;;;5.35;100.00;100666.22;5033810;28;20049;-58
2024/02/18 08:43:09;;;;;;;0.50;0.50;;;;;;;5.24;100.00;100655.13;5033266;28;20053;-59
2024/02/18 08:45:36;;;;;;;0.38;0.38;;;;;;;5.39;100.00;100643.59;5027844;28;20049;-58
2024/02/18 08:48:03;;;;;;;0.50;0.50;;;;;;;5.48;100.00;100652.34;5031889;28;20053;-58
2024/02/18 08:50:32;;;;;;;0.40;0.40;;;;;;;5.53;100.00;100643.88;5031900;28;20042;-58
2024/02/18 08:53:00;;;;;;;0.50;0.50;;;;;;;5.39;100.00;100643.59;5034029;28;20404;-58
2024/02/18 08:55:27;;;;;;;0.47;0.47;;;;;;;5.47;100.00;100649.91;5033848;28;20076;-58
2024/02/18 08:57:54;;;;;;;0.40;0.40;;;;;;;5.67;100.00;100658.25;5035389;28;20049;-58
2024/02/18 09:00:22;;;;;;;0.43;0.43;;;;;;;5.78;100.00;100648.03;5028037;28;20595;-58
2024/02/18 09:02:50;;;;;;;0.40;0.40;;;;;;;5.54;100.00;100645.50;5034284;28;20044;-58
2024/02/18 09:05:19;;;;;;;0.40;0.40;;;;;;;5.65;100.00;100642.47;5026839;28;20056;-58
2024/02/18 09:07:49;;;;;;;0.47;0.47;;;;;;;5.66;100.00;100638.78;5031884;28;20060;-58
2024/02/18 09:10:16;;;;;;;0.40;0.40;;;;;;;5.59;100.00;100638.69;5027813;28;20500;-58
2024/02/18 09:12:43;;;;;;;0.40;0.40;;;;;;;5.90;100.00;100629.81;5032264;28;20076;-58
2024/02/18 09:15:11;;;;;;;0.50;0.50;;;;;;;5.84;100.00;100627.84;5036115;28;20052;-58
2024/02/18 09:17:38;;;;;;;0.50;0.50;;;;;;;5.78;100.00;100618.75;5034519;28;20064;-58
2024/02/18 09:20:07;;;;;;;0.50;0.50;;;;;;;5.90;100.00;100613.03;5028109;28;20462;-58
2024/02/18 09:22:35;;;;;;;0.50;0.50;;;;;;;6.14;100.00;100609.34;5031904;28;20048;-59
2024/02/18 09:25:04;;;;;;;0.40;0.40;;;;;;;6.25;100.00;100609.75;5034534;28;20909;-56
2024/02/18 09:27:32;;;;;;;0.55;0.55;;;;;;;6.29;100.00;100607.59;5043093;28;20053;-60
2024/02/18 09:29:59;;;;;;;0.40;0.40;;;;;;;6.08;100.00;100610.09;5032520;28;20041;-58
2024/02/18 09:32:26;;;;;;;0.40;0.40;;;;;;;6.08;100.00;100605.59;5039862;28;20045;-58
2024/02/18 09:34:53;;;;;;;0.40;0.40;;;;;;;6.32;100.00;100603.72;5030189;28;20052;-58
2024/02/18 09:37:20;;;;;;;0.30;0.30;;;;;;;6.09;100.00;100601.94;5028261;28;20049;-58
2024/02/18 09:39:48;;;;;;;0.40;0.40;;;;;;;6.09;100.00;100585.97;5030732;28;20271;-58
2024/02/18 09:42:16;;;;;;;0.45;0.45;;;;;;;6.12;100.00;100593.59;5030931;28;20450;-58
2024/02/18 09:44:44;;;;;;;0.50;0.50;;;;;;;6.45;100.00;100579.97;5032487;28;20071;-58
2024/02/18 09:47:12;;;;;;;0.40;0.40;;;;;;;6.22;100.00;100572.03;5039710;28;20453;-58
2024/02/18 09:49:39;;;;;;;0.40;0.40;;;;;;;6.28;100.00;100571.28;5034928;28;20529;-58
2024/02/18 09:52:07;;;;;;;0.40;0.40;;;;;;;6.35;100.00;100579.41;5032556;28;20398;-58
2024/02/18 09:54:35;;;;;;;0.47;0.47;;;;;;;6.38;100.00;100568.38;5032537;28;20039;-58
2024/02/18 09:57:03;;;;;;;0.40;0.40;;;;;;;6.34;100.00;100575.91;5032454;28;20053;-58
2024/02/18 09:59:32;;;;;;;0.45;0.45;;;;;;;6.39;100.00;100570.00;5036631;28;20045;-58
2024/02/18 10:01:59;;;;;;;0.40;0.40;;;;;;;6.56;100.00;100563.50;5037574;28;20096;-58
2024/02/18 10:04:27;;;;;;;0.40;0.40;;;;;;;6.53;100.00;100566.53;5033116;28;20041;-58
2024/02/18 10:06:54;;;;;;;0.30;0.30;;;;;;;6.53;100.00;100557.72;5035625;28;20061;-58
2024/02/18 10:09:23;;;;;;;0.40;0.40;;;;;;;6.52;100.00;100554.25;5032032;28;20046;-58
2024/02/18 10:11:50;;;;;;;0.43;0.43;;;;;;;6.30;100.00;100561.31;5022292;28;20049;-58
2024/02/18 10:14:22;;;;;;;0.40;0.40;;;;;;;6.53;100.00;100547.06;5035979;28;20046;-58
2024/02/18 10:16:50;;;;;;;0.50;0.50;;;;;;;6.39;100.00;100528.25;5030926;28;20044;-58
2024/02/18 10:19:20;;;;;;;0.40;0.40;;;;;;;6.51;100.00;100536.59;5036219;28;20480;-58
2024/02/18 10:21:49;;;;;;;0.40;0.40;;;;;;;6.46;100.00;100537.16;5035461;28;20135;-58
2024/02/18 10:24:19;;;;;;;0.43;0.43;;;;;;;6.56;100.00;100526.22;5034507;28;20041;-58
2024/02/18 10:26:46;;;;;;;0.50;0.50;;;;;;;6.36;100.00;100522.47;5031652;28;20053;-57
2024/02/18 10:29:17;;;;;;;0.40;0.40;;;;;;;6.25;100.00;100526.41;5034234;28;20113;-57
2024/02/18 10:31:44;;;;;;;;;;;;;;;6.58;100.00;100532.19;5037669;28;20085;-57
2024/02/18 10:34:13;;;;;;;0.40;0.40;;;;;;;6.56;100.00;100531.53;5033497;28;20156;-59
2024/02/18 10:36:40;;;;;;;0.40;0.40;;;;;;;6.74;100.00;100525.00;5028733;28;20152;-59
2024/02/18 10:39:12;;;;;;;0.30;0.30;;;;;;;6.71;100.00;100526.19;5035587;28;20100;-59
2024/02/18 10:41:41;;;;;;;0.50;0.50;;;;;;;6.64;100.00;100520.81;5028982;28;20052;-59
2024/02/18 10:44:11;;;;;;;0.35;0.35;;;;;;;6.73;100.00;100518.03;5031700;28;20138;-58
2024/02/18 10:46:38;;;;;;;0.50;0.50;;;;;;;6.72;100.00;100509.22;5038886;28;20071;-60
2024/02/18 10:49:08;;;;;;;0.30;0.30;;;;;;;6.83;100.00;100507.91;5036785;28;20085;-60
2024/02/18 10:51:38;;;;;;;0.40;0.40;;;;;;;6.65;100.00;100506.47;5038772;28;20128;-60
2024/02/18 10:54:09;;;;;;;0.40;0.40;;;;;;;6.88;100.00;100486.84;5040025;28;20103;-59
2024/02/18 10:56:40;;;;;;;0.40;0.40;;;;;;;6.91;100.00;100490.00;5029143;28;20111;-59
2024/02/18 10:59:09;;;;;;;;;;;;;;;6.79;100.00;100488.81;5033224;28;20295;-60
2024/02/18 11:01:40;;;;;;;0.40;0.40;;;;;;;7.03;100.00;100487.63;5039934;28;19932;-59
2024/02/18 11:04:08;;;;;;;0.40;0.40;;;;;;;7.07;100.00;100482.78;5026763;28;20045;-60
2024/02/18 11:06:37;;;;;;;0.30;0.30;;;;;;;6.89;100.00;100475.19;5038385;28;20045;-59
2024/02/18 11:09:04;;;;;;;0.40;0.40;;;;;;;7.07;100.00;100472.94;5038556;28;20048;-60
2024/02/18 11:11:32;;;;;;;0.40;0.40;;;;;;;7.01;100.00;100467.50;5037240;28;20542;-60
2024/02/18 11:13:59;;;;;;;0.40;0.40;;;;;;;7.13;100.00;100456.16;5036089;28;20052;-59
2024/02/18 11:16:27;;;;;;;0.30;0.30;;;;;;;7.38;100.00;100462.97;5029842;28;20396;-60
2024/02/18 11:18:54;;;;;;;0.40;0.40;;;;;;;7.33;100.00;100458.19;5030377;28;20084;-60
2024/02/18 11:21:21;;;;;;;0.40;0.40;;;;;;;7.47;100.00;100451.97;5029322;28;20051;-59
2024/02/18 11:23:53;;;;;;;0.30;0.30;;;;;;;7.40;100.00;100447.59;5026571;28;20280;-60
2024/02/18 11:26:20;;;;;;;0.40;0.40;;;;;;;7.18;100.00;100452.09;5026877;28;20114;-60
2024/02/18 11:28:47;;;;;;;0.35;0.35;;;;;;;7.18;100.00;100438.78;5027471;28;20041;-59